sensor_id;sensor_type;location;lat;lon;timestamp;P1;durP1;ratioP1;P2;durP2;ratioP2
6205;SDS011;3136;48.788;9.772;2023-02-01T00:02:23;4.83;;;3.53;;
6205;SDS011;3136;48.788;9.772;2023-02-01T00:04:48;5.60;;;3.27;;
6205;SDS011;3136;48.788;9.772;2023-02-01T00:07:14;5.57;;;3.03;;
6205;SDS011;3136;48.788;9.772;2023-02-01T00:09:40;4.00;;;2.73;;
6205;SDS011;3136;48.788;9.772;2023-02-01T00:12:05;6.33;;;3.20;;
6205;SDS011;3136;48.788;9.772;2023-02-01T00:14:31;4.00;;;3.00;;
6205;SDS011;3136;48.788;9.772;2023-02-01T00:17:03;3.90;;;3.00;;
6205;SDS011;3136;48.788;9.772;2023-02-01T00:19:30;3.97;;;2.70;;
6205;SDS011;3136;48.788;9.772;2023-02-01T00:21:55;6.07;;;3.07;;
6205;SDS011;3136;48.788;9.772;2023-02-01T00:24:21;4.93;;;2.93;;
6205;SDS011;3136;48.788;9.772;2023-02-01T00:26:46;4.43;;;2.60;;
6205;SDS011;3136;48.788;9.772;2023-02-01T00:29:14;4.70;;;2.90;;
6205;SDS011;3136;48.788;9.772;2023-02-01T00:31:41;3.80;;;2.77;;
6205;SDS011;3136;48.788;9.772;2023-02-01T00:34:07;4.77;;;2.93;;
6205;SDS011;3136;48.788;9.772;2023-02-01T00:36:35;5.80;;;2.80;;
6205;SDS011;3136;48.788;9.772;2023-02-01T00:39:00;3.70;;;2.60;;
6205;SDS011;3136;48.788;9.772;2023-02-01T00:41:26;4.07;;;2.90;;
6205;SDS011;3136;48.788;9.772;2023-02-01T00:43:52;3.97;;;2.63;;
6205;SDS011;3136;48.788;9.772;2023-02-01T00:46:18;3.73;;;2.40;;
6205;SDS011;3136;48.788;9.772;2023-02-01T00:48:44;5.93;;;2.77;;
6205;SDS011;3136;48.788;9.772;2023-02-01T00:51:11;6.17;;;2.70;;
6205;SDS011;3136;48.788;9.772;2023-02-01T00:53:38;4.27;;;2.67;;
6205;SDS011;3136;48.788;9.772;2023-02-01T00:56:04;4.07;;;2.90;;
6205;SDS011;3136;48.788;9.772;2023-02-01T00:58:31;3.77;;;2.50;;
6205;SDS011;3136;48.788;9.772;2023-02-01T01:01:04;3.50;;;2.70;;
6205;SDS011;3136;48.788;9.772;2023-02-01T01:03:32;4.37;;;2.60;;
6205;SDS011;3136;48.788;9.772;2023-02-01T01:06:00;3.27;;;2.60;;
6205;SDS011;3136;48.788;9.772;2023-02-01T01:08:27;3.70;;;2.43;;
6205;SDS011;3136;48.788;9.772;2023-02-01T01:10:52;4.93;;;2.73;;
6205;SDS011;3136;48.788;9.772;2023-02-01T01:13:18;4.97;;;2.60;;
6205;SDS011;3136;48.788;9.772;2023-02-01T01:15:43;3.17;;;2.50;;
6205;SDS011;3136;48.788;9.772;2023-02-01T01:18:09;4.57;;;2.50;;
6205;SDS011;3136;48.788;9.772;2023-02-01T01:20:35;3.03;;;2.60;;
6205;SDS011;3136;48.788;9.772;2023-02-01T01:23:02;3.30;;;2.30;;
6205;SDS011;3136;48.788;9.772;2023-02-01T01:25:28;2.90;;;2.23;;
6205;SDS011;3136;48.788;9.772;2023-02-01T01:27:54;4.73;;;2.20;;
6205;SDS011;3136;48.788;9.772;2023-02-01T01:30:20;4.47;;;2.70;;
6205;SDS011;3136;48.788;9.772;2023-02-01T01:32:46;2.90;;;2.30;;
6205;SDS011;3136;48.788;9.772;2023-02-01T01:35:12;2.20;;;2.00;;
6205;SDS011;3136;48.788;9.772;2023-02-01T01:37:37;3.47;;;2.63;;
6205;SDS011;3136;48.788;9.772;2023-02-01T01:40:03;4.50;;;2.47;;
6205;SDS011;3136;48.788;9.772;2023-02-01T01:42:30;2.57;;;2.13;;
6205;SDS011;3136;48.788;9.772;2023-02-01T01:45:03;4.37;;;2.40;;
6205;SDS011;3136;48.788;9.772;2023-02-01T01:47:40;2.80;;;2.30;;
6205;SDS011;3136;48.788;9.772;2023-02-01T01:50:12;3.17;;;2.40;;
6205;SDS011;3136;48.788;9.772;2023-02-01T01:52:41;4.20;;;2.50;;
6205;SDS011;3136;48.788;9.772;2023-02-01T01:55:10;3.60;;;2.27;;
6205;SDS011;3136;48.788;9.772;2023-02-01T01:57:37;4.50;;;2.40;;
6205;SDS011;3136;48.788;9.772;2023-02-01T02:00:07;4.40;;;2.77;;
6205;SDS011;3136;48.788;9.772;2023-02-01T02:02:36;3.43;;;2.40;;
6205;SDS011;3136;48.788;9.772;2023-02-01T02:05:03;3.43;;;2.40;;
6205;SDS011;3136;48.788;9.772;2023-02-01T02:07:30;4.70;;;2.90;;
6205;SDS011;3136;48.788;9.772;2023-02-01T02:09:59;3.30;;;2.60;;
6205;SDS011;3136;48.788;9.772;2023-02-01T02:12:26;4.00;;;2.23;;
6205;SDS011;3136;48.788;9.772;2023-02-01T02:14:51;3.33;;;2.57;;
6205;SDS011;3136;48.788;9.772;2023-02-01T02:23:03;2.20;;;2.00;;
6205;SDS011;3136;48.788;9.772;2023-02-01T02:34:47;3.30;;;2.20;;
6205;SDS011;3136;48.788;9.772;2023-02-01T02:37:21;2.70;;;2.10;;
6205;SDS011;3136;48.788;9.772;2023-02-01T02:42:43;3.67;;;2.20;;
6205;SDS011;3136;48.788;9.772;2023-02-01T02:45:59;3.17;;;2.30;;
6205;SDS011;3136;48.788;9.772;2023-02-01T02:48:51;2.30;;;1.90;;
6205;SDS011;3136;48.788;9.772;2023-02-01T02:51:28;2.47;;;2.00;;
6205;SDS011;3136;48.788;9.772;2023-02-01T02:54:18;2.67;;;1.97;;
6205;SDS011;3136;48.788;9.772;2023-02-01T02:57:06;2.67;;;2.00;;
6205;SDS011;3136;48.788;9.772;2023-02-01T02:59:53;2.90;;;1.97;;
6205;SDS011;3136;48.788;9.772;2023-02-01T03:02:42;3.90;;;1.80;;
6205;SDS011;3136;48.788;9.772;2023-02-01T03:05:34;2.00;;;1.80;;
6205;SDS011;3136;48.788;9.772;2023-02-01T03:10:33;2.80;;;2.30;;
6205;SDS011;3136;48.788;9.772;2023-02-01T03:13:02;2.10;;;1.80;;
6205;SDS011;3136;48.788;9.772;2023-02-01T03:15:51;2.03;;;1.83;;
6205;SDS011;3136;48.788;9.772;2023-02-01T03:18:46;2.17;;;1.70;;
6205;SDS011;3136;48.788;9.772;2023-02-01T03:21:18;3.20;;;1.93;;
6205;SDS011;3136;48.788;9.772;2023-02-01T03:23:55;3.60;;;1.80;;
6205;SDS011;3136;48.788;9.772;2023-02-01T03:26:26;2.90;;;1.90;;
6205;SDS011;3136;48.788;9.772;2023-02-01T03:28:54;4.27;;;1.80;;
6205;SDS011;3136;48.788;9.772;2023-02-01T03:31:24;2.63;;;1.87;;
6205;SDS011;3136;48.788;9.772;2023-02-01T03:33:52;3.07;;;1.80;;
6205;SDS011;3136;48.788;9.772;2023-02-01T03:36:20;1.63;;;1.50;;
6205;SDS011;3136;48.788;9.772;2023-02-01T03:42:01;1.83;;;1.73;;
6205;SDS011;3136;48.788;9.772;2023-02-01T03:47:22;2.17;;;1.90;;
6205;SDS011;3136;48.788;9.772;2023-02-01T03:49:52;2.33;;;2.00;;
6205;SDS011;3136;48.788;9.772;2023-02-01T03:52:28;4.03;;;2.27;;
6205;SDS011;3136;48.788;9.772;2023-02-01T03:55:09;2.40;;;1.90;;
6205;SDS011;3136;48.788;9.772;2023-02-01T03:57:39;2.20;;;1.93;;
6205;SDS011;3136;48.788;9.772;2023-02-01T04:00:14;2.63;;;2.10;;
6205;SDS011;3136;48.788;9.772;2023-02-01T04:02:42;2.40;;;2.10;;
6205;SDS011;3136;48.788;9.772;2023-02-01T04:05:08;2.33;;;2.00;;
6205;SDS011;3136;48.788;9.772;2023-02-01T04:07:33;2.47;;;1.90;;
6205;SDS011;3136;48.788;9.772;2023-02-01T04:09:59;3.20;;;2.00;;
6205;SDS011;3136;48.788;9.772;2023-02-01T04:12:25;2.40;;;2.00;;
6205;SDS011;3136;48.788;9.772;2023-02-01T04:14:50;2.10;;;1.90;;
6205;SDS011;3136;48.788;9.772;2023-02-01T04:17:16;2.00;;;1.70;;
6205;SDS011;3136;48.788;9.772;2023-02-01T04:19:41;2.40;;;1.80;;
6205;SDS011;3136;48.788;9.772;2023-02-01T04:22:07;1.93;;;1.77;;
6205;SDS011;3136;48.788;9.772;2023-02-01T04:24:32;2.90;;;2.00;;
6205;SDS011;3136;48.788;9.772;2023-02-01T04:26:58;2.67;;;1.97;;
6205;SDS011;3136;48.788;9.772;2023-02-01T04:29:23;3.00;;;2.17;;
6205;SDS011;3136;48.788;9.772;2023-02-01T04:31:49;2.27;;;2.03;;
6205;SDS011;3136;48.788;9.772;2023-02-01T04:34:14;5.30;;;2.17;;
6205;SDS011;3136;48.788;9.772;2023-02-01T04:36:40;2.30;;;2.00;;
6205;SDS011;3136;48.788;9.772;2023-02-01T04:39:06;2.27;;;2.00;;
6205;SDS011;3136;48.788;9.772;2023-02-01T04:41:33;3.10;;;1.87;;
6205;SDS011;3136;48.788;9.772;2023-02-01T04:43:59;3.37;;;2.10;;
6205;SDS011;3136;48.788;9.772;2023-02-01T04:46:24;2.90;;;2.00;;
6205;SDS011;3136;48.788;9.772;2023-02-01T04:48:50;2.57;;;1.93;;
6205;SDS011;3136;48.788;9.772;2023-02-01T04:51:16;2.07;;;1.87;;
6205;SDS011;3136;48.788;9.772;2023-02-01T04:53:43;2.23;;;1.90;;
6205;SDS011;3136;48.788;9.772;2023-02-01T04:56:09;3.50;;;1.90;;
6205;SDS011;3136;48.788;9.772;2023-02-01T04:58:34;2.43;;;1.80;;
6205;SDS011;3136;48.788;9.772;2023-02-01T05:01:04;2.70;;;2.03;;
6205;SDS011;3136;48.788;9.772;2023-02-01T05:03:33;2.20;;;2.00;;
6205;SDS011;3136;48.788;9.772;2023-02-01T05:06:00;2.67;;;2.20;;
6205;SDS011;3136;48.788;9.772;2023-02-01T05:08:25;2.50;;;2.10;;
6205;SDS011;3136;48.788;9.772;2023-02-01T05:10:52;3.20;;;1.77;;
6205;SDS011;3136;48.788;9.772;2023-02-01T05:13:17;2.73;;;1.93;;
6205;SDS011;3136;48.788;9.772;2023-02-01T05:16:02;2.83;;;2.13;;
6205;SDS011;3136;48.788;9.772;2023-02-01T05:18:27;2.13;;;1.90;;
6205;SDS011;3136;48.788;9.772;2023-02-01T05:20:53;2.30;;;1.80;;
6205;SDS011;3136;48.788;9.772;2023-02-01T05:23:18;2.07;;;1.80;;
6205;SDS011;3136;48.788;9.772;2023-02-01T05:25:44;1.93;;;1.73;;
6205;SDS011;3136;48.788;9.772;2023-02-01T05:28:09;2.80;;;2.00;;
6205;SDS011;3136;48.788;9.772;2023-02-01T05:30:35;3.93;;;2.37;;
6205;SDS011;3136;48.788;9.772;2023-02-01T05:33:01;2.87;;;2.00;;
6205;SDS011;3136;48.788;9.772;2023-02-01T05:35:27;4.07;;;2.00;;
6205;SDS011;3136;48.788;9.772;2023-02-01T05:37:53;2.00;;;1.77;;
6205;SDS011;3136;48.788;9.772;2023-02-01T05:40:18;2.83;;;2.20;;
6205;SDS011;3136;48.788;9.772;2023-02-01T05:42:44;2.50;;;1.93;;
6205;SDS011;3136;48.788;9.772;2023-02-01T05:45:09;2.33;;;1.90;;
6205;SDS011;3136;48.788;9.772;2023-02-01T05:47:35;2.83;;;1.80;;
6205;SDS011;3136;48.788;9.772;2023-02-01T05:50:01;3.17;;;1.80;;
6205;SDS011;3136;48.788;9.772;2023-02-01T05:52:28;2.33;;;2.00;;
6205;SDS011;3136;48.788;9.772;2023-02-01T05:54:53;3.17;;;1.60;;
6205;SDS011;3136;48.788;9.772;2023-02-01T05:57:19;2.23;;;1.90;;
6205;SDS011;3136;48.788;9.772;2023-02-01T05:59:44;3.87;;;1.70;;
6205;SDS011;3136;48.788;9.772;2023-02-01T06:02:13;3.17;;;1.77;;
6205;SDS011;3136;48.788;9.772;2023-02-01T06:04:42;4.63;;;1.67;;
6205;SDS011;3136;48.788;9.772;2023-02-01T06:07:08;1.80;;;1.63;;
6205;SDS011;3136;48.788;9.772;2023-02-01T06:09:35;2.10;;;1.80;;
6205;SDS011;3136;48.788;9.772;2023-02-01T06:12:01;3.23;;;1.90;;
6205;SDS011;3136;48.788;9.772;2023-02-01T06:14:27;2.23;;;1.83;;
6205;SDS011;3136;48.788;9.772;2023-02-01T06:16:56;1.90;;;1.70;;
6205;SDS011;3136;48.788;9.772;2023-02-01T06:19:22;2.07;;;1.70;;
6205;SDS011;3136;48.788;9.772;2023-02-01T06:21:48;3.10;;;1.80;;
6205;SDS011;3136;48.788;9.772;2023-02-01T06:24:14;2.93;;;1.70;;
6205;SDS011;3136;48.788;9.772;2023-02-01T06:26:39;2.10;;;1.90;;
6205;SDS011;3136;48.788;9.772;2023-02-01T06:29:05;2.60;;;1.80;;
6205;SDS011;3136;48.788;9.772;2023-02-01T06:31:32;2.67;;;1.80;;
6205;SDS011;3136;48.788;9.772;2023-02-01T06:33:58;2.27;;;1.90;;
6205;SDS011;3136;48.788;9.772;2023-02-01T06:36:24;2.07;;;1.60;;
6205;SDS011;3136;48.788;9.772;2023-02-01T06:38:49;2.77;;;1.87;;
6205;SDS011;3136;48.788;9.772;2023-02-01T06:41:15;2.27;;;1.80;;
6205;SDS011;3136;48.788;9.772;2023-02-01T06:43:41;3.27;;;1.90;;
6205;SDS011;3136;48.788;9.772;2023-02-01T06:46:07;1.70;;;1.60;;
6205;SDS011;3136;48.788;9.772;2023-02-01T06:48:36;2.90;;;1.70;;
6205;SDS011;3136;48.788;9.772;2023-02-01T06:51:01;2.40;;;1.60;;
6205;SDS011;3136;48.788;9.772;2023-02-01T06:53:27;2.87;;;1.80;;
6205;SDS011;3136;48.788;9.772;2023-02-01T06:55:53;2.20;;;1.80;;
6205;SDS011;3136;48.788;9.772;2023-02-01T06:58:20;2.27;;;2.00;;
6205;SDS011;3136;48.788;9.772;2023-02-01T07:00:46;3.40;;;1.60;;
6205;SDS011;3136;48.788;9.772;2023-02-01T07:03:11;2.80;;;2.00;;
6205;SDS011;3136;48.788;9.772;2023-02-01T07:05:37;1.70;;;1.60;;
6205;SDS011;3136;48.788;9.772;2023-02-01T07:08:02;2.73;;;1.80;;
6205;SDS011;3136;48.788;9.772;2023-02-01T07:10:28;2.03;;;1.63;;
6205;SDS011;3136;48.788;9.772;2023-02-01T07:12:56;1.80;;;1.50;;
6205;SDS011;3136;48.788;9.772;2023-02-01T07:15:22;3.10;;;1.80;;
6205;SDS011;3136;48.788;9.772;2023-02-01T07:17:48;2.20;;;1.93;;
6205;SDS011;3136;48.788;9.772;2023-02-01T07:20:14;2.87;;;2.03;;
6205;SDS011;3136;48.788;9.772;2023-02-01T07:22:40;2.93;;;1.63;;
6205;SDS011;3136;48.788;9.772;2023-02-01T07:25:05;3.13;;;1.67;;
6205;SDS011;3136;48.788;9.772;2023-02-01T07:27:35;3.67;;;1.87;;
6205;SDS011;3136;48.788;9.772;2023-02-01T07:30:01;3.13;;;1.90;;
6205;SDS011;3136;48.788;9.772;2023-02-01T07:32:28;1.80;;;1.50;;
6205;SDS011;3136;48.788;9.772;2023-02-01T07:34:54;4.07;;;2.30;;
6205;SDS011;3136;48.788;9.772;2023-02-01T07:37:19;2.17;;;1.90;;
6205;SDS011;3136;48.788;9.772;2023-02-01T07:39:45;3.83;;;2.00;;
6205;SDS011;3136;48.788;9.772;2023-02-01T07:42:10;3.03;;;2.10;;
6205;SDS011;3136;48.788;9.772;2023-02-01T07:44:36;3.60;;;1.90;;
6205;SDS011;3136;48.788;9.772;2023-02-01T07:47:02;3.23;;;2.00;;
6205;SDS011;3136;48.788;9.772;2023-02-01T07:49:27;4.50;;;2.10;;
6205;SDS011;3136;48.788;9.772;2023-02-01T07:51:53;2.10;;;1.70;;
6205;SDS011;3136;48.788;9.772;2023-02-01T07:54:18;2.80;;;1.97;;
6205;SDS011;3136;48.788;9.772;2023-02-01T07:56:44;2.47;;;1.90;;
6205;SDS011;3136;48.788;9.772;2023-02-01T07:59:09;3.17;;;1.90;;
6205;SDS011;3136;48.788;9.772;2023-02-01T08:01:36;3.13;;;1.97;;
6205;SDS011;3136;48.788;9.772;2023-02-01T08:04:02;2.70;;;2.00;;
6205;SDS011;3136;48.788;9.772;2023-02-01T08:06:30;3.40;;;2.20;;
6205;SDS011;3136;48.788;9.772;2023-02-01T08:08:57;3.57;;;2.23;;
6205;SDS011;3136;48.788;9.772;2023-02-01T08:11:24;3.70;;;2.00;;
6205;SDS011;3136;48.788;9.772;2023-02-01T08:13:50;2.43;;;2.03;;
6205;SDS011;3136;48.788;9.772;2023-02-01T08:16:18;2.90;;;2.20;;
6205;SDS011;3136;48.788;9.772;2023-02-01T08:18:44;2.73;;;2.00;;
6205;SDS011;3136;48.788;9.772;2023-02-01T08:23:43;3.67;;;2.20;;
6205;SDS011;3136;48.788;9.772;2023-02-01T08:28:37;2.70;;;1.97;;
6205;SDS011;3136;48.788;9.772;2023-02-01T08:31:11;2.97;;;2.00;;
6205;SDS011;3136;48.788;9.772;2023-02-01T08:33:39;3.23;;;2.03;;
6205;SDS011;3136;48.788;9.772;2023-02-01T08:36:06;3.47;;;2.03;;
6205;SDS011;3136;48.788;9.772;2023-02-01T08:38:36;2.93;;;1.97;;
6205;SDS011;3136;48.788;9.772;2023-02-01T08:41:05;3.43;;;2.40;;
6205;SDS011;3136;48.788;9.772;2023-02-01T08:43:32;4.70;;;2.30;;
6205;SDS011;3136;48.788;9.772;2023-02-01T08:45:57;4.30;;;2.33;;
6205;SDS011;3136;48.788;9.772;2023-02-01T08:48:23;2.80;;;2.07;;
6205;SDS011;3136;48.788;9.772;2023-02-01T08:50:48;2.93;;;2.10;;
6205;SDS011;3136;48.788;9.772;2023-02-01T08:53:14;4.03;;;2.20;;
6205;SDS011;3136;48.788;9.772;2023-02-01T08:55:40;2.57;;;2.00;;
6205;SDS011;3136;48.788;9.772;2023-02-01T08:58:06;3.80;;;2.10;;
6205;SDS011;3136;48.788;9.772;2023-02-01T09:00:31;4.10;;;2.37;;
6205;SDS011;3136;48.788;9.772;2023-02-01T09:02:57;3.53;;;2.13;;
6205;SDS011;3136;48.788;9.772;2023-02-01T09:05:23;3.63;;;2.30;;
6205;SDS011;3136;48.788;9.772;2023-02-01T09:07:51;4.90;;;2.50;;
6205;SDS011;3136;48.788;9.772;2023-02-01T09:10:18;2.40;;;2.07;;
6205;SDS011;3136;48.788;9.772;2023-02-01T09:12:43;4.00;;;2.17;;
6205;SDS011;3136;48.788;9.772;2023-02-01T09:15:09;3.67;;;2.10;;
6205;SDS011;3136;48.788;9.772;2023-02-01T09:17:34;3.57;;;2.10;;
6205;SDS011;3136;48.788;9.772;2023-02-01T09:20:00;3.73;;;2.00;;
6205;SDS011;3136;48.788;9.772;2023-02-01T09:22:26;4.87;;;2.00;;
6205;SDS011;3136;48.788;9.772;2023-02-01T09:24:53;7.77;;;2.60;;
6205;SDS011;3136;48.788;9.772;2023-02-01T09:27:19;4.23;;;2.10;;
6205;SDS011;3136;48.788;9.772;2023-02-01T09:29:45;3.90;;;1.80;;
6205;SDS011;3136;48.788;9.772;2023-02-01T09:32:14;4.90;;;2.27;;
6205;SDS011;3136;48.788;9.772;2023-02-01T09:34:40;3.07;;;1.87;;
6205;SDS011;3136;48.788;9.772;2023-02-01T09:37:05;3.97;;;2.00;;
6205;SDS011;3136;48.788;9.772;2023-02-01T09:39:31;4.50;;;1.83;;
6205;SDS011;3136;48.788;9.772;2023-02-01T09:47:18;3.43;;;2.00;;
6205;SDS011;3136;48.788;9.772;2023-02-01T09:49:56;3.43;;;1.97;;
6205;SDS011;3136;48.788;9.772;2023-02-01T09:53:01;3.87;;;2.07;;
6205;SDS011;3136;48.788;9.772;2023-02-01T09:55:32;5.90;;;2.50;;
6205;SDS011;3136;48.788;9.772;2023-02-01T09:58:40;4.30;;;1.97;;
6205;SDS011;3136;48.788;9.772;2023-02-01T10:01:03;3.87;;;2.27;;
6205;SDS011;3136;48.788;9.772;2023-02-01T10:03:35;5.20;;;2.27;;
6205;SDS011;3136;48.788;9.772;2023-02-01T10:17:18;4.53;;;2.20;;
6205;SDS011;3136;48.788;9.772;2023-02-01T10:20:01;4.20;;;2.03;;
6205;SDS011;3136;48.788;9.772;2023-02-01T10:22:46;3.00;;;1.80;;
6205;SDS011;3136;48.788;9.772;2023-02-01T10:25:23;3.57;;;2.10;;
6205;SDS011;3136;48.788;9.772;2023-02-01T10:27:53;7.47;;;2.20;;
6205;SDS011;3136;48.788;9.772;2023-02-01T10:30:23;3.53;;;2.20;;
6205;SDS011;3136;48.788;9.772;2023-02-01T10:32:56;3.53;;;2.03;;
6205;SDS011;3136;48.788;9.772;2023-02-01T10:35:50;6.23;;;2.37;;
6205;SDS011;3136;48.788;9.772;2023-02-01T10:38:38;4.07;;;2.10;;
6205;SDS011;3136;48.788;9.772;2023-02-01T10:41:15;5.23;;;2.33;;
6205;SDS011;3136;48.788;9.772;2023-02-01T10:43:43;7.07;;;2.33;;
6205;SDS011;3136;48.788;9.772;2023-02-01T10:46:12;8.07;;;2.73;;
6205;SDS011;3136;48.788;9.772;2023-02-01T10:48:38;3.37;;;2.37;;
6205;SDS011;3136;48.788;9.772;2023-02-01T10:51:06;6.13;;;2.30;;
6205;SDS011;3136;48.788;9.772;2023-02-01T10:53:57;2.83;;;2.10;;
6205;SDS011;3136;48.788;9.772;2023-02-01T10:56:28;4.53;;;2.10;;
6205;SDS011;3136;48.788;9.772;2023-02-01T10:59:01;4.90;;;2.03;;
6205;SDS011;3136;48.788;9.772;2023-02-01T11:04:10;6.40;;;2.30;;
6205;SDS011;3136;48.788;9.772;2023-02-01T11:06:39;2.97;;;2.13;;
6205;SDS011;3136;48.788;9.772;2023-02-01T11:14:16;5.07;;;2.47;;
6205;SDS011;3136;48.788;9.772;2023-02-01T11:17:12;6.07;;;2.10;;
6205;SDS011;3136;48.788;9.772;2023-02-01T11:19:44;7.33;;;2.37;;
6205;SDS011;3136;48.788;9.772;2023-02-01T11:22:11;6.50;;;2.40;;
6205;SDS011;3136;48.788;9.772;2023-02-01T11:24:38;7.60;;;2.17;;
6205;SDS011;3136;48.788;9.772;2023-02-01T11:27:20;6.63;;;2.30;;
6205;SDS011;3136;48.788;9.772;2023-02-01T11:29:49;4.30;;;2.07;;
6205;SDS011;3136;48.788;9.772;2023-02-01T11:32:17;8.70;;;2.40;;
6205;SDS011;3136;48.788;9.772;2023-02-01T11:34:53;6.87;;;2.23;;
6205;SDS011;3136;48.788;9.772;2023-02-01T11:39:53;5.50;;;2.30;;
6205;SDS011;3136;48.788;9.772;2023-02-01T11:42:23;5.77;;;2.00;;
6205;SDS011;3136;48.788;9.772;2023-02-01T11:44:50;8.87;;;2.57;;
6205;SDS011;3136;48.788;9.772;2023-02-01T11:47:20;8.80;;;2.40;;
6205;SDS011;3136;48.788;9.772;2023-02-01T11:49:53;6.00;;;2.50;;
6205;SDS011;3136;48.788;9.772;2023-02-01T12:11:57;9.43;;;2.80;;
6205;SDS011;3136;48.788;9.772;2023-02-01T12:22:46;7.23;;;2.10;;
6205;SDS011;3136;48.788;9.772;2023-02-01T12:25:54;7.57;;;2.40;;
6205;SDS011;3136;48.788;9.772;2023-02-01T12:29:00;7.73;;;2.20;;
6205;SDS011;3136;48.788;9.772;2023-02-01T12:31:57;13.00;;;2.50;;
6205;SDS011;3136;48.788;9.772;2023-02-01T12:34:51;12.43;;;3.10;;
6205;SDS011;3136;48.788;9.772;2023-02-01T12:37:55;8.50;;;2.33;;
6205;SDS011;3136;48.788;9.772;2023-02-01T12:43:43;7.87;;;2.50;;
6205;SDS011;3136;48.788;9.772;2023-02-01T12:46:07;9.53;;;2.90;;
6205;SDS011;3136;48.788;9.772;2023-02-01T12:49:00;9.40;;;2.77;;
6205;SDS011;3136;48.788;9.772;2023-02-01T12:51:36;8.00;;;2.40;;
6205;SDS011;3136;48.788;9.772;2023-02-01T12:56:46;8.17;;;2.17;;
6205;SDS011;3136;48.788;9.772;2023-02-01T12:59:27;9.27;;;2.70;;
6205;SDS011;3136;48.788;9.772;2023-02-01T13:02:05;6.70;;;2.47;;
6205;SDS011;3136;48.788;9.772;2023-02-01T13:07:28;9.27;;;2.60;;
6205;SDS011;3136;48.788;9.772;2023-02-01T13:10:01;7.73;;;2.27;;
6205;SDS011;3136;48.788;9.772;2023-02-01T13:12:38;7.23;;;2.33;;
6205;SDS011;3136;48.788;9.772;2023-02-01T13:15:14;7.87;;;2.10;;
6205;SDS011;3136;48.788;9.772;2023-02-01T13:17:41;8.57;;;2.77;;
6205;SDS011;3136;48.788;9.772;2023-02-01T13:20:15;10.53;;;2.43;;
6205;SDS011;3136;48.788;9.772;2023-02-01T13:22:54;5.67;;;2.23;;
6205;SDS011;3136;48.788;9.772;2023-02-01T13:28:00;6.47;;;2.23;;
6205;SDS011;3136;48.788;9.772;2023-02-01T13:30:33;11.00;;;2.80;;
6205;SDS011;3136;48.788;9.772;2023-02-01T13:33:24;7.70;;;2.20;;
6205;SDS011;3136;48.788;9.772;2023-02-01T13:41:41;12.20;;;2.40;;
6205;SDS011;3136;48.788;9.772;2023-02-01T13:44:52;9.97;;;2.50;;
6205;SDS011;3136;48.788;9.772;2023-02-01T13:50:00;9.43;;;2.00;;
6205;SDS011;3136;48.788;9.772;2023-02-01T13:52:38;11.50;;;2.50;;
6205;SDS011;3136;48.788;9.772;2023-02-01T13:57:45;9.10;;;2.30;;
6205;SDS011;3136;48.788;9.772;2023-02-01T14:13:28;9.67;;;2.30;;
6205;SDS011;3136;48.788;9.772;2023-02-01T14:23:43;13.13;;;4.90;;
6205;SDS011;3136;48.788;9.772;2023-02-01T14:26:12;11.60;;;3.40;;
6205;SDS011;3136;48.788;9.772;2023-02-01T14:29:03;7.27;;;2.80;;
6205;SDS011;3136;48.788;9.772;2023-02-01T14:31:31;11.83;;;2.83;;
6205;SDS011;3136;48.788;9.772;2023-02-01T14:34:17;10.23;;;2.83;;
6205;SDS011;3136;48.788;9.772;2023-02-01T14:36:52;9.27;;;2.73;;
6205;SDS011;3136;48.788;9.772;2023-02-01T14:39:30;10.57;;;2.63;;
6205;SDS011;3136;48.788;9.772;2023-02-01T14:42:01;9.40;;;2.73;;
6205;SDS011;3136;48.788;9.772;2023-02-01T14:44:30;8.60;;;2.60;;
6205;SDS011;3136;48.788;9.772;2023-02-01T14:49:34;9.27;;;2.60;;
6205;SDS011;3136;48.788;9.772;2023-02-01T14:52:05;12.53;;;2.83;;
6205;SDS011;3136;48.788;9.772;2023-02-01T14:54:41;10.33;;;2.67;;
6205;SDS011;3136;48.788;9.772;2023-02-01T14:57:15;7.77;;;2.40;;
6205;SDS011;3136;48.788;9.772;2023-02-01T14:59:44;7.93;;;2.50;;
6205;SDS011;3136;48.788;9.772;2023-02-01T15:02:24;8.60;;;2.10;;
6205;SDS011;3136;48.788;9.772;2023-02-01T15:04:55;10.60;;;2.10;;
6205;SDS011;3136;48.788;9.772;2023-02-01T15:07:22;11.00;;;2.27;;
6205;SDS011;3136;48.788;9.772;2023-02-01T15:09:50;9.20;;;2.30;;
6205;SDS011;3136;48.788;9.772;2023-02-01T15:12:24;10.23;;;2.47;;
6205;SDS011;3136;48.788;9.772;2023-02-01T15:17:39;11.30;;;2.57;;
6205;SDS011;3136;48.788;9.772;2023-02-01T15:22:43;10.10;;;2.67;;
6205;SDS011;3136;48.788;9.772;2023-02-01T15:25:23;6.90;;;2.37;;
6205;SDS011;3136;48.788;9.772;2023-02-01T15:27:53;12.03;;;2.20;;
6205;SDS011;3136;48.788;9.772;2023-02-01T15:30:21;7.40;;;2.40;;
6205;SDS011;3136;48.788;9.772;2023-02-01T15:33:04;10.17;;;2.40;;
6205;SDS011;3136;48.788;9.772;2023-02-01T15:40:56;7.37;;;2.10;;
6205;SDS011;3136;48.788;9.772;2023-02-01T15:43:35;11.03;;;2.57;;
6205;SDS011;3136;48.788;9.772;2023-02-01T15:46:09;12.13;;;2.33;;
6205;SDS011;3136;48.788;9.772;2023-02-01T15:48:39;7.07;;;2.23;;
6205;SDS011;3136;48.788;9.772;2023-02-01T15:51:17;7.77;;;2.10;;
6205;SDS011;3136;48.788;9.772;2023-02-01T15:53:46;10.57;;;2.43;;
6205;SDS011;3136;48.788;9.772;2023-02-01T15:56:22;7.87;;;2.17;;
6205;SDS011;3136;48.788;9.772;2023-02-01T15:58:51;7.43;;;2.40;;
6205;SDS011;3136;48.788;9.772;2023-02-01T16:01:20;8.47;;;2.23;;
6205;SDS011;3136;48.788;9.772;2023-02-01T16:03:46;8.87;;;2.10;;
6205;SDS011;3136;48.788;9.772;2023-02-01T16:08:55;7.90;;;1.80;;
6205;SDS011;3136;48.788;9.772;2023-02-01T16:14:19;6.50;;;1.70;;
6205;SDS011;3136;48.788;9.772;2023-02-01T16:16:45;10.37;;;2.20;;
6205;SDS011;3136;48.788;9.772;2023-02-01T16:19:11;6.83;;;2.00;;
6205;SDS011;3136;48.788;9.772;2023-02-01T16:21:37;9.87;;;2.10;;
6205;SDS011;3136;48.788;9.772;2023-02-01T16:24:02;9.70;;;2.60;;
6205;SDS011;3136;48.788;9.772;2023-02-01T16:26:30;9.57;;;2.47;;
6205;SDS011;3136;48.788;9.772;2023-02-01T16:28:56;7.57;;;2.40;;
6205;SDS011;3136;48.788;9.772;2023-02-01T16:31:25;6.73;;;2.43;;
6205;SDS011;3136;48.788;9.772;2023-02-01T16:33:53;11.37;;;2.13;;
6205;SDS011;3136;48.788;9.772;2023-02-01T16:36:19;12.27;;;2.40;;
6205;SDS011;3136;48.788;9.772;2023-02-01T16:38:46;10.97;;;2.37;;
6205;SDS011;3136;48.788;9.772;2023-02-01T16:41:14;13.20;;;2.73;;
6205;SDS011;3136;48.788;9.772;2023-02-01T16:43:41;8.23;;;2.50;;
6205;SDS011;3136;48.788;9.772;2023-02-01T16:46:11;8.87;;;3.27;;
6205;SDS011;3136;48.788;9.772;2023-02-01T16:48:40;7.43;;;2.63;;
6205;SDS011;3136;48.788;9.772;2023-02-01T16:51:11;7.30;;;2.63;;
6205;SDS011;3136;48.788;9.772;2023-02-01T16:53:40;8.50;;;3.50;;
6205;SDS011;3136;48.788;9.772;2023-02-01T16:56:16;7.23;;;2.87;;
6205;SDS011;3136;48.788;9.772;2023-02-01T16:58:44;9.57;;;2.30;;
6205;SDS011;3136;48.788;9.772;2023-02-01T17:01:10;7.33;;;2.30;;
6205;SDS011;3136;48.788;9.772;2023-02-01T17:03:37;11.07;;;2.50;;
6205;SDS011;3136;48.788;9.772;2023-02-01T17:06:02;7.77;;;2.43;;
6205;SDS011;3136;48.788;9.772;2023-02-01T17:08:36;7.13;;;2.30;;
6205;SDS011;3136;48.788;9.772;2023-02-01T17:11:05;9.70;;;2.53;;
6205;SDS011;3136;48.788;9.772;2023-02-01T17:13:31;6.23;;;2.20;;
6205;SDS011;3136;48.788;9.772;2023-02-01T17:18:28;9.20;;;2.40;;
6205;SDS011;3136;48.788;9.772;2023-02-01T17:21:00;8.70;;;3.07;;
6205;SDS011;3136;48.788;9.772;2023-02-01T17:23:28;6.83;;;2.77;;
6205;SDS011;3136;48.788;9.772;2023-02-01T17:25:54;5.47;;;2.20;;
6205;SDS011;3136;48.788;9.772;2023-02-01T17:28:20;8.30;;;2.33;;
6205;SDS011;3136;48.788;9.772;2023-02-01T17:30:46;10.77;;;2.40;;
6205;SDS011;3136;48.788;9.772;2023-02-01T17:33:17;11.60;;;2.67;;
6205;SDS011;3136;48.788;9.772;2023-02-01T17:36:01;9.70;;;2.30;;
6205;SDS011;3136;48.788;9.772;2023-02-01T17:38:27;6.87;;;1.93;;
6205;SDS011;3136;48.788;9.772;2023-02-01T17:40:53;9.63;;;2.13;;
6205;SDS011;3136;48.788;9.772;2023-02-01T17:43:22;7.17;;;2.27;;
6205;SDS011;3136;48.788;9.772;2023-02-01T17:45:51;11.97;;;2.70;;
6205;SDS011;3136;48.788;9.772;2023-02-01T17:48:19;7.27;;;2.40;;
6205;SDS011;3136;48.788;9.772;2023-02-01T17:50:46;7.70;;;2.13;;
6205;SDS011;3136;48.788;9.772;2023-02-01T17:53:14;7.30;;;2.07;;
6205;SDS011;3136;48.788;9.772;2023-02-01T17:55:41;9.53;;;2.80;;
6205;SDS011;3136;48.788;9.772;2023-02-01T17:58:12;13.83;;;2.60;;
6205;SDS011;3136;48.788;9.772;2023-02-01T18:00:39;7.23;;;2.13;;
6205;SDS011;3136;48.788;9.772;2023-02-01T18:03:07;10.33;;;2.50;;
6205;SDS011;3136;48.788;9.772;2023-02-01T18:05:47;8.57;;;2.40;;